Terminal Aerodrome Forecast
Issued by NWS

Home | Current Version | Previous Version | Graphics & Text | Print | Product List | Glossary Off
Versions: 1 2 3 4 5 6 7 8 9 10 11 12 13 14 15

000
FTUS43 KICT 210500
TAFRSL
TAF
KRSL 210522Z 2106/2206 18016G23KT P6SM SCT100 BKN250
     FM211500 20018G26KT P6SM FEW060 SCT250
     FM220100 18014G20KT P6SM VCTS BKN100CB=

USA.gov is the U.S. government's official web portal to all federal, state and local government web resources and services.